首页
METAR-TAF:

METAR-TAF

机场 :

塔什干国际机场

塔什干, 乌兹别克斯坦

纬度: 41-16N, 经度: 069-16E, 海拔: 489米

当前天气观测

该预报发布于24分钟前的14:30 UTC
静风
温度 18°C
湿度 34%
气压 1020 hPa
能見度: 4000

METAR: UTTT 231430Z 00000KT 4000 FU NSC 18/02 Q1020 R26R/CLRD70 NOSIG

时间: 19:54 (14:54 UTC)

预报

该预报发布于3小时和54分钟前的11:00 UTC
预报有效从23日的 12点(UTC)到 24日的 12点(UTC)
风速8节,风向西北
能見度: 7000
短暂存在
从 23日的 12点(UTC)到 23日的 18点(UTC)
能見度: 4000
短暂存在
从 23日的 18点(UTC)到 23日的 24点(UTC)
风速12节,风向东转东北

TAF: UTTT 231100Z 2312/2412 32008KT 7000 NSC TEMPO 2312/2318 4000 FU TEMPO 2318/2324 07012KT

超过4000个机场的气象观测和天气预报(METAR&TAF报告)。

可查询的气象台以黄色和红色小点在地图上表示。

将鼠标移到小点上方,可查看气象台名称。

然后点击查看天气观测和预报。

如需切换地图:点击带黑十字的绿色按钮放大地图;点击带横线的绿色按钮缩小地图;或者点击绿色箭头查看邻近地区的地图。


METAR-TAF: